createdAt,value
2018-08-09T00:01:19.373Z,17.03
2018-08-09T00:03:48.173Z,17.93
2018-08-09T00:06:16.727Z,11.17
2018-08-09T00:08:45.549Z,13.03
2018-08-09T00:11:14.115Z,12.33
2018-08-09T00:13:42.736Z,15.63
2018-08-09T00:16:11.815Z,17.23
2018-08-09T00:18:40.441Z,13.00
2018-08-09T00:21:09.054Z,11.73
2018-08-09T00:23:37.941Z,15.27
2018-08-09T00:26:06.669Z,11.07
2018-08-09T00:28:35.177Z,14.30
2018-08-09T00:31:03.916Z,11.77
2018-08-09T00:33:32.464Z,17.77
2018-08-09T00:36:00.978Z,16.90
2018-08-09T00:38:29.556Z,19.43
2018-08-09T00:40:58.134Z,14.90
2018-08-09T00:43:26.614Z,18.53
2018-08-09T00:45:55.135Z,11.43
2018-08-09T00:48:23.806Z,25.93
2018-08-09T00:50:52.410Z,17.97
2018-08-09T00:53:20.901Z,18.03
2018-08-09T00:55:49.697Z,13.60
2018-08-09T00:58:18.219Z,16.53
2018-08-09T01:00:46.713Z,14.53
2018-08-09T01:03:15.229Z,14.07
2018-08-09T01:05:43.896Z,17.70
2018-08-09T01:08:12.483Z,18.13
2018-08-09T01:10:40.981Z,17.40
2018-08-09T01:13:10.313Z,16.57
2018-08-09T01:15:39.388Z,14.10
2018-08-09T01:18:08.960Z,14.80
2018-08-09T01:20:37.491Z,14.57
2018-08-09T01:23:06.024Z,16.03
2018-08-09T01:25:34.818Z,12.50
2018-08-09T01:28:03.740Z,13.40
2018-08-09T01:30:32.259Z,12.73
2018-08-09T01:33:00.803Z,19.00
2018-08-09T01:35:29.492Z,18.60
2018-08-09T01:37:58.067Z,16.33
2018-08-09T01:40:26.568Z,15.63
2018-08-09T01:43:06.168Z,15.43
2018-08-09T01:45:34.701Z,21.43
2018-08-09T01:48:03.279Z,18.23
2018-08-09T01:50:32.408Z,20.93
2018-08-09T01:53:01.010Z,20.93
2018-08-09T01:55:29.688Z,19.67
2018-08-09T01:57:58.212Z,14.40
2018-08-09T02:00:26.802Z,18.83
2018-08-09T02:02:55.321Z,19.23
2018-08-09T02:05:23.826Z,22.03
2018-08-09T02:07:52.412Z,23.10
2018-08-09T02:10:21.456Z,14.00
2018-08-09T02:12:49.956Z,19.07
2018-08-09T02:15:18.479Z,16.87
2018-08-09T02:17:47.565Z,16.20
2018-08-09T02:20:16.388Z,23.97
2018-08-09T02:22:44.897Z,23.27
2018-08-09T02:25:13.524Z,23.93
2018-08-09T02:27:42.190Z,22.33
2018-08-09T02:30:10.990Z,19.30
2018-08-09T02:32:39.481Z,25.83
2018-08-09T02:35:08.111Z,23.60
2018-08-09T02:37:36.683Z,21.20
2018-08-09T02:40:05.936Z,27.40
2018-08-09T02:42:34.484Z,20.73
2018-08-09T02:45:03.569Z,20.83
2018-08-09T02:47:32.163Z,28.03
2018-08-09T02:50:00.708Z,19.40
2018-08-09T02:52:29.209Z,22.47
2018-08-09T02:54:57.761Z,18.90
2018-08-09T02:57:26.284Z,22.57
2018-08-09T02:59:54.820Z,27.70
2018-08-09T03:02:23.459Z,17.50
2018-08-09T03:04:52.031Z,15.33
2018-08-09T03:07:20.520Z,18.27
2018-08-09T03:09:49.394Z,19.30
2018-08-09T03:12:18.064Z,20.10
2018-08-09T03:14:46.563Z,17.83
2018-08-09T03:17:15.159Z,17.30
2018-08-09T03:19:43.670Z,25.10
2018-08-09T03:22:12.264Z,18.33
2018-08-09T03:24:40.751Z,19.90
2018-08-09T03:27:09.244Z,19.90
2018-08-09T03:29:37.983Z,19.47
2018-08-09T03:32:06.492Z,20.20
2018-08-09T03:34:34.980Z,22.10
2018-08-09T03:37:03.664Z,20.20
2018-08-09T03:39:32.196Z,23.73
2018-08-09T03:42:00.736Z,21.93
2018-08-09T03:44:29.377Z,19.30
2018-08-09T03:46:57.991Z,20.40
2018-08-09T03:49:26.485Z,22.83
2018-08-09T03:51:55.185Z,23.20
2018-08-09T03:54:23.809Z,23.13
2018-08-09T03:56:52.413Z,20.80
2018-08-09T03:59:20.916Z,23.77
2018-08-09T04:01:49.471Z,25.57
2018-08-09T04:04:18.012Z,26.20
2018-08-09T04:06:46.513Z,21.93
2018-08-09T04:09:15.035Z,22.77
2018-08-09T04:11:43.763Z,17.87
2018-08-09T04:14:12.378Z,16.73
2018-08-09T04:16:40.904Z,19.70
2018-08-09T04:19:09.475Z,22.43
2018-08-09T04:21:38.041Z,21.17
2018-08-09T04:24:07.038Z,19.60
2018-08-09T04:26:35.646Z,14.10
2018-08-09T04:29:04.240Z,18.47
2018-08-09T04:31:33.115Z,18.07
2018-08-09T04:34:01.609Z,18.57
2018-08-09T04:36:30.135Z,14.40
2018-08-09T04:38:58.811Z,22.53
2018-08-09T04:41:27.407Z,14.60
2018-08-09T04:43:55.900Z,21.00
2018-08-09T04:46:24.495Z,14.27
2018-08-09T04:48:53.128Z,21.37
2018-08-09T04:51:21.650Z,15.80
2018-08-09T04:53:50.442Z,17.43
2018-08-09T04:56:19.007Z,21.20
2018-08-09T04:58:47.594Z,16.93
2018-08-09T05:01:16.149Z,12.60
2018-08-09T05:03:44.900Z,16.73
2018-08-09T05:06:13.514Z,19.60
2018-08-09T05:08:42.223Z,19.93
2018-08-09T05:11:10.793Z,19.47
2018-08-09T05:13:39.572Z,21.97
2018-08-09T05:16:08.192Z,16.03
2018-08-09T05:18:36.938Z,15.23
2018-08-09T05:21:05.448Z,12.83
2018-08-09T05:23:33.977Z,17.43
2018-08-09T05:26:02.896Z,18.73
2018-08-09T05:28:31.409Z,14.60
2018-08-09T05:30:59.988Z,16.87
2018-08-09T05:33:28.578Z,11.80
2018-08-09T05:35:57.109Z,20.67
2018-08-09T05:38:25.825Z,15.77
2018-08-09T05:40:54.442Z,17.57
2018-08-09T05:43:23.128Z,13.37
2018-08-09T05:45:51.623Z,14.90
2018-08-09T05:48:20.175Z,13.33
2018-08-09T05:50:52.040Z,20.60
2018-08-09T05:53:20.745Z,17.07
2018-08-09T05:55:49.322Z,16.00
2018-08-09T05:58:17.840Z,17.27
2018-08-09T06:00:46.419Z,19.10
2018-08-09T06:03:15.012Z,13.10
2018-08-09T06:05:43.593Z,15.77
2018-08-09T06:08:12.110Z,24.33
2018-08-09T06:10:40.900Z,18.03
2018-08-09T06:13:09.526Z,19.43
2018-08-09T06:15:38.073Z,10.67
2018-08-09T06:18:06.763Z,18.67
2018-08-09T06:20:35.732Z,10.67
2018-08-09T06:23:04.293Z,16.50
2018-08-09T06:25:33.019Z,14.67
2018-08-09T06:28:01.592Z,15.53
2018-08-09T06:30:30.204Z,13.47
2018-08-09T06:32:58.747Z,11.07
2018-08-09T06:35:27.344Z,13.17
2018-08-09T06:37:55.996Z,8.83
2018-08-09T06:40:24.543Z,16.60
2018-08-09T06:42:53.125Z,10.90
2018-08-09T06:45:21.707Z,9.97
2018-08-09T06:47:50.293Z,15.97
2018-08-09T06:50:18.824Z,10.33
2018-08-09T06:52:47.420Z,12.10
2018-08-09T06:55:16.028Z,10.53
2018-08-09T06:57:44.605Z,9.43
2018-08-09T07:00:13.704Z,11.10
2018-08-09T07:02:42.463Z,17.03
2018-08-09T07:05:11.066Z,14.00
2018-08-09T07:07:40.491Z,8.87
2018-08-09T07:10:09.611Z,11.40
2018-08-09T07:12:38.213Z,18.47
2018-08-09T07:15:09.683Z,11.07
2018-08-09T07:17:38.357Z,11.27
2018-08-09T07:20:07.868Z,11.13
2018-08-09T07:22:37.017Z,11.77
2018-08-09T07:25:05.638Z,12.27
2018-08-09T07:27:34.137Z,12.87
2018-08-09T07:30:02.721Z,15.67
2018-08-09T07:32:31.795Z,10.53
2018-08-09T07:35:00.328Z,11.27
2018-08-09T07:37:28.865Z,14.50
2018-08-09T07:39:57.502Z,11.73
2018-08-09T07:42:25.991Z,12.63
2018-08-09T07:44:54.539Z,9.83
2018-08-09T07:47:23.272Z,13.63
2018-08-09T07:49:51.827Z,11.00
2018-08-09T07:52:20.407Z,12.00
2018-08-09T07:54:48.927Z,15.93
2018-08-09T07:57:17.523Z,11.50
2018-08-09T07:59:46.143Z,13.27
2018-08-09T08:02:14.653Z,23.00
2018-08-09T08:04:43.984Z,13.93
2018-08-09T08:07:12.587Z,13.93
2018-08-09T08:09:41.541Z,10.97
2018-08-09T08:12:10.040Z,15.10
2018-08-09T08:14:38.551Z,15.67
2018-08-09T08:17:07.180Z,12.60
2018-08-09T08:19:35.771Z,12.23
2018-08-09T08:22:04.317Z,16.77
2018-08-09T08:24:33.208Z,15.73
2018-08-09T08:27:01.725Z,13.37
2018-08-09T08:29:30.248Z,14.20
2018-08-09T08:31:58.861Z,11.97
2018-08-09T08:34:27.450Z,10.80
2018-08-09T08:36:55.937Z,12.83
2018-08-09T08:39:24.543Z,11.73
2018-08-09T08:41:53.188Z,23.17
2018-08-09T08:44:21.694Z,11.10
2018-08-09T08:46:50.213Z,9.87
2018-08-09T08:49:18.800Z,15.93
2018-08-09T08:51:47.324Z,13.43
2018-08-09T08:54:15.837Z,10.73
2018-08-09T08:56:44.416Z,10.50
2018-08-09T08:59:13.013Z,10.43
2018-08-09T09:01:41.628Z,11.10
2018-08-09T09:04:10.176Z,9.53
2018-08-09T09:06:38.778Z,10.23
2018-08-09T09:09:10.179Z,15.30
2018-08-09T09:11:38.799Z,9.53
2018-08-09T09:14:07.378Z,11.10
2018-08-09T09:16:35.890Z,12.97
2018-08-09T09:19:04.614Z,10.50
2018-08-09T09:21:33.229Z,11.53
2018-08-09T09:24:01.876Z,15.33
2018-08-09T09:26:30.421Z,11.30
2018-08-09T09:28:59.254Z,14.10
2018-08-09T09:31:28.655Z,10.40
2018-08-09T09:33:57.213Z,10.40
2018-08-09T09:36:25.839Z,13.93
2018-08-09T09:38:54.408Z,11.93
2018-08-09T09:41:23.037Z,9.37
2018-08-09T09:43:51.576Z,11.27
2018-08-09T09:46:20.284Z,13.53
2018-08-09T09:48:48.897Z,12.87
2018-08-09T09:51:17.456Z,10.23
2018-08-09T09:53:46.033Z,11.47
2018-08-09T09:56:14.880Z,11.33
2018-08-09T09:58:43.472Z,16.00
2018-08-09T10:01:17.719Z,15.43
2018-08-09T10:03:46.231Z,11.80
2018-08-09T10:06:14.835Z,12.33
2018-08-09T10:08:43.635Z,11.37
2018-08-09T10:11:12.249Z,13.20
2018-08-09T10:13:40.885Z,11.97
2018-08-09T10:16:09.625Z,12.70
2018-08-09T10:18:38.272Z,17.60
2018-08-09T10:21:06.851Z,17.63
2018-08-09T10:23:35.548Z,14.30
2018-08-09T10:26:04.119Z,16.50
2018-08-09T10:28:32.652Z,14.80
2018-08-09T10:31:01.228Z,13.00
2018-08-09T10:33:29.887Z,13.47
2018-08-09T10:35:58.410Z,9.57
2018-08-09T10:38:26.917Z,14.73
2018-08-09T10:40:55.542Z,13.50
2018-08-09T10:43:24.292Z,16.83
2018-08-09T10:45:52.847Z,15.30
2018-08-09T10:48:21.360Z,15.43
2018-08-09T10:50:49.984Z,26.30
2018-08-09T10:53:19.177Z,28.40
2018-08-09T10:55:47.771Z,38.13
2018-08-09T10:58:16.492Z,26.73
2018-08-09T11:00:45.116Z,45.27
2018-08-09T11:03:13.658Z,22.53
2018-08-09T11:05:42.458Z,32.20
2018-08-09T11:08:11.068Z,33.17
2018-08-09T11:10:39.653Z,22.63
2018-08-09T11:13:08.234Z,24.90
2018-08-09T11:15:37.209Z,24.20
2018-08-09T11:18:05.797Z,20.43
2018-08-09T11:20:35.027Z,28.30
2018-08-09T11:23:03.600Z,22.40
2018-08-09T11:25:32.769Z,51.13
2018-08-09T11:28:02.052Z,39.10
2018-08-09T11:30:30.668Z,37.47
2018-08-09T11:32:59.785Z,41.30
2018-08-09T11:35:28.537Z,27.13
2018-08-09T11:37:57.976Z,21.53
2018-08-09T11:40:26.938Z,22.60
2018-08-09T11:42:56.128Z,23.70
2018-08-09T11:45:24.685Z,16.83
2018-08-09T11:47:53.254Z,13.90
2018-08-09T11:50:22.136Z,17.53
2018-08-09T11:52:50.797Z,18.27
2018-08-09T11:55:19.565Z,16.83
2018-08-09T11:57:48.128Z,13.93
2018-08-09T12:00:17.214Z,16.83
2018-08-09T12:02:45.750Z,8.83
2018-08-09T12:05:14.317Z,11.40
2018-08-09T12:07:43.040Z,12.20
2018-08-09T12:10:11.801Z,11.97
2018-08-09T12:12:40.470Z,12.60
2018-08-09T12:15:09.315Z,6.53
2018-08-09T12:17:38.248Z,12.83
2018-08-09T12:20:07.466Z,12.70
2018-08-09T12:22:36.121Z,6.20
2018-08-09T12:25:05.055Z,6.70
2018-08-09T12:27:33.660Z,11.67
2018-08-09T12:30:02.863Z,8.37
2018-08-09T12:32:31.436Z,8.63
2018-08-09T12:35:00.371Z,7.30
2018-08-09T12:37:28.932Z,6.30
2018-08-09T12:39:58.325Z,6.00
2018-08-09T12:42:26.876Z,6.20
2018-08-09T12:44:55.827Z,8.00
2018-08-09T12:47:24.372Z,5.10
2018-08-09T12:49:53.006Z,4.20
2018-08-09T12:52:22.236Z,10.00
2018-08-09T12:54:50.742Z,5.60
2018-08-09T12:57:19.892Z,3.90
2018-08-09T12:59:48.664Z,3.93
2018-08-09T13:02:17.496Z,4.50
2018-08-09T13:04:46.307Z,7.90
2018-08-09T13:07:15.492Z,6.47
2018-08-09T13:09:44.153Z,4.63
2018-08-09T13:12:13.065Z,2.70
2018-08-09T13:14:41.721Z,2.87
2018-08-09T13:17:10.497Z,4.67
2018-08-09T13:19:39.216Z,6.00
2018-08-09T13:22:08.279Z,3.87
2018-08-09T13:24:37.013Z,6.53
2018-08-09T13:27:06.612Z,3.47
2018-08-09T13:29:35.178Z,5.33
2018-08-09T13:32:04.132Z,5.00
2018-08-09T13:34:33.162Z,6.00
2018-08-09T13:37:02.078Z,3.10
2018-08-09T13:39:30.794Z,4.60
2018-08-09T13:42:00.031Z,4.90
2018-08-09T13:44:28.848Z,6.20
2018-08-09T13:46:57.694Z,5.17
2018-08-09T13:49:26.270Z,6.40
2018-08-09T13:51:54.904Z,8.23
2018-08-09T13:54:24.213Z,4.47
2018-08-09T13:56:53.229Z,5.07
2018-08-09T13:59:21.944Z,3.70
2018-08-09T14:01:50.569Z,10.30
2018-08-09T14:04:19.555Z,3.40
2018-08-09T14:06:48.729Z,3.80
2018-08-09T14:09:17.474Z,4.33
2018-08-09T14:11:46.154Z,4.10
2018-08-09T14:14:15.006Z,9.17
2018-08-09T14:16:43.736Z,4.23
2018-08-09T14:19:12.331Z,5.03
2018-08-09T14:21:41.260Z,9.40
2018-08-09T14:24:10.363Z,5.43
2018-08-09T14:26:39.239Z,4.83
2018-08-09T14:29:08.348Z,6.10
2018-08-09T14:31:37.407Z,4.73
2018-08-09T14:34:07.552Z,4.33
2018-08-09T14:36:36.158Z,4.40
2018-08-09T14:39:08.179Z,5.10
2018-08-09T14:41:36.886Z,5.33
2018-08-09T14:44:05.818Z,8.17
2018-08-09T14:46:34.525Z,5.90
2018-08-09T14:49:03.286Z,2.63
2018-08-09T14:51:32.248Z,3.03
2018-08-09T14:54:00.952Z,5.27
2018-08-09T14:56:29.560Z,3.97
2018-08-09T14:58:58.140Z,4.87
2018-08-09T15:01:26.759Z,5.63
2018-08-09T15:03:55.535Z,4.13
2018-08-09T15:06:24.151Z,5.00
2018-08-09T15:08:52.707Z,6.70
2018-08-09T15:11:21.562Z,9.23
2018-08-09T15:13:50.356Z,5.20
2018-08-09T15:16:18.908Z,3.13
2018-08-09T15:18:47.680Z,2.73
2018-08-09T15:21:16.300Z,11.13
2018-08-09T15:23:45.029Z,5.60
2018-08-09T15:26:13.720Z,5.63
2018-08-09T15:28:42.280Z,3.53
2018-08-09T15:31:10.940Z,5.80
2018-08-09T15:33:39.544Z,6.13
2018-08-09T15:36:08.377Z,8.10
2018-08-09T15:38:37.062Z,5.47
2018-08-09T15:41:05.788Z,8.80
2018-08-09T15:43:34.398Z,5.10
2018-08-09T15:46:02.964Z,4.60
2018-08-09T15:48:31.612Z,5.33
2018-08-09T15:51:00.412Z,4.40
2018-08-09T15:53:28.932Z,5.27
2018-08-09T15:55:57.577Z,3.43
2018-08-09T15:58:26.204Z,4.30
2018-08-09T16:00:54.887Z,6.20
2018-08-09T16:03:23.608Z,3.67
2018-08-09T16:05:52.159Z,5.80
2018-08-09T16:08:20.849Z,3.63
2018-08-09T16:10:49.610Z,3.17
2018-08-09T16:13:18.184Z,4.03
2018-08-09T16:15:46.811Z,4.50
2018-08-09T16:18:15.492Z,2.47
2018-08-09T16:20:44.090Z,14.50
2018-08-09T16:23:12.939Z,7.00
2018-08-09T16:25:41.704Z,6.00
2018-08-09T16:28:10.283Z,5.07
2018-08-09T16:30:38.882Z,2.97
2018-08-09T16:33:07.487Z,2.10
2018-08-09T16:35:36.198Z,2.70
2018-08-09T16:38:04.839Z,2.87
2018-08-09T16:40:33.445Z,3.00
2018-08-09T16:43:02.126Z,3.53
2018-08-09T16:45:30.831Z,3.60
2018-08-09T16:47:59.466Z,3.43
2018-08-09T16:50:28.017Z,3.07
2018-08-09T16:52:56.686Z,5.17
2018-08-09T16:55:25.893Z,4.70
2018-08-09T16:57:54.635Z,2.33
2018-08-09T17:00:24.282Z,2.30
2018-08-09T17:02:53.936Z,4.60
2018-08-09T17:05:23.846Z,2.50
2018-08-09T17:07:52.621Z,2.83
2018-08-09T17:10:22.724Z,2.37
2018-08-09T17:12:52.222Z,3.57
2018-08-09T17:15:23.508Z,2.90
2018-08-09T17:17:52.491Z,3.80
2018-08-09T17:20:23.632Z,3.27
2018-08-09T17:22:52.252Z,5.47
2018-08-09T17:25:20.888Z,5.63
2018-08-09T17:27:50.039Z,2.80
2018-08-09T17:30:20.312Z,5.53
2018-08-09T17:32:49.180Z,3.43
2018-08-09T17:35:18.769Z,7.17
2018-08-09T17:37:47.548Z,4.10
2018-08-09T17:40:18.875Z,4.43
2018-08-09T17:42:48.697Z,4.97
2018-08-09T17:45:17.641Z,2.47
2018-08-09T17:47:46.727Z,10.90
2018-08-09T17:50:15.421Z,5.80
2018-08-09T17:52:44.291Z,4.30
2018-08-09T17:55:14.413Z,2.90
2018-08-09T17:57:43.937Z,6.23
2018-08-09T18:00:17.773Z,2.70
2018-08-09T18:02:46.415Z,4.63
2018-08-09T18:05:14.997Z,3.90
2018-08-09T18:07:43.856Z,6.60
2018-08-09T18:10:15.385Z,3.27
2018-08-09T18:12:44.235Z,3.40
2018-08-09T18:15:12.813Z,2.50
2018-08-09T18:17:41.572Z,6.50
2018-08-09T18:20:13.817Z,1.60
2018-08-09T18:22:42.876Z,6.60
2018-08-09T18:25:12.489Z,1.60
2018-08-09T18:27:41.607Z,1.50
2018-08-09T18:30:12.465Z,1.43
2018-08-09T18:32:41.252Z,3.57
2018-08-09T18:35:11.524Z,6.93
2018-08-09T18:37:40.444Z,1.60
2018-08-09T18:40:12.790Z,2.90
2018-08-09T18:42:42.542Z,4.53
2018-08-09T18:45:11.759Z,1.37
2018-08-09T18:47:40.716Z,1.70
2018-08-09T18:50:22.907Z,1.43
2018-08-09T18:52:52.374Z,1.30
2018-08-09T18:55:21.067Z,1.23
2018-08-09T18:57:49.707Z,1.30
2018-08-09T19:00:20.608Z,6.87
2018-08-09T19:02:49.913Z,2.80
2018-08-09T19:05:18.556Z,0.90
2018-08-09T19:07:47.441Z,3.43
2018-08-09T19:10:20.292Z,1.57
2018-08-09T19:12:49.231Z,1.50
2018-08-09T19:15:17.953Z,1.63
2018-08-09T19:17:46.675Z,1.27
2018-08-09T19:20:24.946Z,1.60
2018-08-09T19:22:53.892Z,1.50
2018-08-09T19:25:22.512Z,1.73
2018-08-09T19:27:51.403Z,2.23
2018-08-09T19:30:21.981Z,1.37
2018-08-09T19:32:50.748Z,1.53
2018-08-09T19:35:20.084Z,2.30
2018-08-09T19:37:48.778Z,2.90
2018-08-09T19:40:19.030Z,1.40
2018-08-09T19:42:47.856Z,5.60
2018-08-09T19:45:18.140Z,2.60
2018-08-09T19:47:46.891Z,1.97
2018-08-09T19:50:17.181Z,1.23
2018-08-09T19:52:45.814Z,1.50
2018-08-09T19:55:18.992Z,2.40
2018-08-09T19:57:49.722Z,1.17
2018-08-09T20:00:24.265Z,1.40
2018-08-09T20:02:52.907Z,1.30
2018-08-09T20:05:21.648Z,1.47
2018-08-09T20:07:50.773Z,1.80
2018-08-09T20:10:19.576Z,5.27
2018-08-09T20:12:48.887Z,2.03
2018-08-09T20:15:20.145Z,1.30
2018-08-09T20:17:48.803Z,1.30
2018-08-09T20:20:18.985Z,2.10
2018-08-09T20:22:49.176Z,1.33
2018-08-09T20:25:18.552Z,1.93
2018-08-09T20:27:47.836Z,1.87
2018-08-09T20:30:17.615Z,1.63
2018-08-09T20:32:46.736Z,5.73
2018-08-09T20:35:20.457Z,3.07
2018-08-09T20:37:49.529Z,1.40
2018-08-09T20:40:19.415Z,2.00
2018-08-09T20:42:50.592Z,1.53
2018-08-09T20:45:20.775Z,2.17
2018-08-09T20:47:49.780Z,1.20
2018-08-09T20:50:20.143Z,1.70
2018-08-09T20:52:49.447Z,3.57
2018-08-09T20:55:18.084Z,8.27
2018-08-09T20:57:48.726Z,10.83
2018-08-09T21:00:21.188Z,6.93
2018-08-09T21:02:51.130Z,9.57
2018-08-09T21:05:24.353Z,12.70
2018-08-09T21:07:54.008Z,18.80
2018-08-09T21:10:23.046Z,8.73
2018-08-09T21:12:52.104Z,21.57
2018-08-09T21:15:21.329Z,12.73
2018-08-09T21:17:50.228Z,1.83
2018-08-09T21:20:18.960Z,7.97
2018-08-09T21:22:48.696Z,2.30
2018-08-09T21:25:17.481Z,11.27
2018-08-09T21:27:46.780Z,11.87
2018-08-09T21:30:18.346Z,11.83
2018-08-09T21:32:47.859Z,1.90
2018-08-09T21:35:16.629Z,2.67
2018-08-09T21:37:45.783Z,1.77
2018-08-09T21:40:15.093Z,4.57
2018-08-09T21:42:43.741Z,2.50
2018-08-09T21:45:15.612Z,2.63
2018-08-09T21:47:44.913Z,6.83
2018-08-09T21:50:17.792Z,1.60
2018-08-09T21:52:46.429Z,1.10
2018-08-09T21:55:15.337Z,1.20
2018-08-09T21:57:45.501Z,3.40
2018-08-09T22:01:00.816Z,5.33
2018-08-09T22:06:12.004Z,1.90
2018-08-09T22:08:46.239Z,8.20
2018-08-09T22:11:20.152Z,1.50
2018-08-09T22:13:54.019Z,6.30
2018-08-09T22:16:28.214Z,1.63
2018-08-09T22:19:02.113Z,2.73
2018-08-09T22:21:35.893Z,1.70
2018-08-09T22:24:04.595Z,2.50
2018-08-09T22:26:34.188Z,1.67
2018-08-09T22:29:02.820Z,2.40
2018-08-09T22:31:31.675Z,2.80
2018-08-09T22:34:00.895Z,3.90
2018-08-09T22:36:29.600Z,2.20
2018-08-09T22:38:58.201Z,0.80
2018-08-09T22:41:26.880Z,1.87
2018-08-09T22:43:55.508Z,6.53
2018-08-09T22:46:24.139Z,0.83
2018-08-09T22:48:52.748Z,0.80
2018-08-09T22:51:21.452Z,0.70
2018-08-09T22:53:50.554Z,1.27
2018-08-09T22:56:19.282Z,6.53
2018-08-09T22:58:47.842Z,1.00
2018-08-09T23:01:16.580Z,1.07
2018-08-09T23:03:45.284Z,2.50
2018-08-09T23:06:15.377Z,0.70
2018-08-09T23:08:44.174Z,2.37
2018-08-09T23:11:12.777Z,0.80
2018-08-09T23:13:41.524Z,5.53
2018-08-09T23:16:10.238Z,0.83
2018-08-09T23:18:38.791Z,3.10
2018-08-09T23:21:07.741Z,3.17
2018-08-09T23:23:36.481Z,1.33
2018-08-09T23:26:05.149Z,3.40
2018-08-09T23:28:33.808Z,0.90
2018-08-09T23:31:02.524Z,1.87
2018-08-09T23:33:31.223Z,0.87
2018-08-09T23:35:59.796Z,1.73
2018-08-09T23:38:28.359Z,3.10
2018-08-09T23:40:57.236Z,1.27
2018-08-09T23:43:25.916Z,1.67
2018-08-09T23:45:54.474Z,0.77
2018-08-09T23:48:23.064Z,1.67
2018-08-09T23:50:51.788Z,1.57
2018-08-09T23:53:20.427Z,1.00
2018-08-09T23:55:49.345Z,1.00
2018-08-09T23:58:18.014Z,1.23
